Terminal Aerodrome Forecast
Issued by NWS

Home | Current Version | Previous Version | Text Only | Print | Product List | Glossary On
Versions: 1 2 3 4 5 6 7 8 9 10 11 12 13 14 15 16
000
FTUS43 KICT 201739
TAFSLN
TAF
KSLN 201739Z 2018/2118 17007KT P6SM SCT015
     FM202100 11007KT P6SM SCT035
     FM210100 12005KT P6SM BKN045
     FM210400 12004KT P6SM OVC025
     FM210900 09004KT P6SM BKN015
     FM211000 09004KT P6SM BKN003=

USA.gov is the U.S. government's official web portal to all federal, state and local government web resources and services.